Time;durP1;ratioP1;P1;durP2;ratioP2;P2;SDS_P1;SDS_P2;PMS_P1;PMS_P2;Temp;Humidity;BMP_temperature;BMP_pressure;BME280_temperature;BME280_humidity;BME280_pressure;Samples;Min_cycle;Max_cycle;Signal;HPM_P1;HPM_P2
2021/03/13 00:00:08;;;;;;;1.80;0.80;;;5.70;99.90;;;;;;5087994;28;20657;-76
2021/03/13 00:02:35;;;;;;;0.60;0.40;;;5.70;99.90;;;;;;5088178;28;20238;-77
2021/03/13 00:05:01;;;;;;;0.73;0.50;;;5.70;99.90;;;;;;5087956;28;20676;-77
2021/03/13 00:07:28;;;;;;;2.83;0.77;;;5.70;99.90;;;;;;5088513;28;20273;-76
2021/03/13 00:09:54;;;;;;;1.43;0.50;;;5.70;99.90;;;;;;5088051;28;20573;-76
2021/03/13 00:12:21;;;;;;;1.47;0.53;;;5.80;99.90;;;;;;5088348;28;20210;-76
2021/03/13 00:14:48;;;;;;;0.77;0.67;;;5.80;99.90;;;;;;5088239;28;20230;-76
2021/03/13 00:17:14;;;;;;;0.60;0.60;;;5.80;99.90;;;;;;5088451;28;20209;-77
2021/03/13 00:19:40;;;;;;;1.13;0.77;;;5.90;99.90;;;;;;5088045;28;20786;-77
2021/03/13 00:22:07;;;;;;;2.37;0.80;;;5.90;99.90;;;;;;5088122;28;20237;-77
2021/03/13 00:24:33;;;;;;;1.03;0.53;;;5.80;99.90;;;;;;5091592;28;20282;-77
2021/03/13 00:26:59;;;;;;;1.53;0.97;;;5.80;99.90;;;;;;5091980;28;20244;-75
2021/03/13 00:29:25;;;;;;;1.17;0.90;;;5.90;99.90;;;;;;5092170;28;20203;-76
2021/03/13 00:31:53;;;;;;;0.70;0.70;;;5.90;99.90;;;;;;5092157;28;20260;-76
2021/03/13 00:34:20;;;;;;;1.13;1.00;;;5.90;99.90;;;;;;5092118;28;20276;-76
2021/03/13 00:36:47;;;;;;;1.37;1.00;;;5.80;99.90;;;;;;5092200;28;20211;-77
2021/03/13 00:39:13;;;;;;;1.93;0.93;;;5.80;99.90;;;;;;5092031;28;20215;-76
2021/03/13 00:41:39;;;;;;;2.87;1.07;;;5.80;99.90;;;;;;5091689;28;20695;-76
2021/03/13 00:44:06;;;;;;;1.10;1.00;;;5.80;99.90;;;;;;5091923;28;20238;-76
2021/03/13 00:46:32;;;;;;;0.87;0.73;;;5.80;99.90;;;;;;5091863;28;20218;-76
2021/03/13 00:48:58;;;;;;;1.87;1.10;;;5.70;99.90;;;;;;5091680;28;20207;-75
2021/03/13 00:51:25;;;;;;;1.57;1.00;;;5.70;99.90;;;;;;5091648;28;20613;-75
2021/03/13 00:53:52;;;;;;;1.73;0.83;;;5.70;99.90;;;;;;5091382;28;20226;-75
2021/03/13 00:56:19;;;;;;;1.20;1.10;;;5.80;99.90;;;;;;5091764;28;20230;-75
2021/03/13 00:58:45;;;;;;;1.10;1.00;;;5.70;99.90;;;;;;5091264;28;20661;-75
2021/03/13 01:01:11;;;;;;;2.63;1.20;;;5.60;99.90;;;;;;5091520;28;20577;-75
2021/03/13 01:03:37;;;;;;;1.53;1.07;;;5.60;99.90;;;;;;5091194;28;20242;-75
2021/03/13 01:06:04;;;;;;;0.93;0.90;;;5.60;99.90;;;;;;5091340;28;20203;-75
2021/03/13 01:08:32;;;;;;;1.73;1.03;;;5.60;99.90;;;;;;5091681;28;20256;-75
2021/03/13 01:10:58;;;;;;;0.97;0.97;;;5.60;99.90;;;;;;5091229;28;20593;-75
2021/03/13 01:13:24;;;;;;;1.23;1.13;;;5.50;99.90;;;;;;5091287;28;20207;-76
2021/03/13 01:15:51;;;;;;;1.47;1.10;;;5.50;99.90;;;;;;5091251;28;20237;-75
2021/03/13 01:18:18;;;;;;;0.90;0.90;;;5.60;99.90;;;;;;5091329;28;20202;-76
2021/03/13 01:20:45;;;;;;;1.43;1.17;;;5.60;99.90;;;;;;5091193;28;20207;-75
2021/03/13 01:23:11;;;;;;;3.43;1.40;;;5.60;99.90;;;;;;5090880;28;20203;-76
2021/03/13 01:25:38;;;;;;;1.00;1.00;;;5.60;99.90;;;;;;5091202;28;20209;-76
2021/03/13 01:28:04;;;;;;;1.60;1.20;;;5.60;99.90;;;;;;5090935;28;20701;-75
2021/03/13 01:30:31;;;;;;;1.53;1.43;;;5.60;99.90;;;;;;5091145;28;20275;-77
2021/03/13 01:32:57;;;;;;;2.03;1.43;;;5.50;99.90;;;;;;5091154;28;20239;-76
2021/03/13 01:35:24;;;;;;;1.40;1.10;;;5.60;99.90;;;;;;5090866;28;20378;-77
2021/03/13 01:37:51;;;;;;;1.50;1.30;;;5.50;99.90;;;;;;5091127;28;20206;-77
2021/03/13 01:40:18;;;;;;;1.83;1.60;;;5.50;99.90;;;;;;5090861;28;20199;-77
2021/03/13 01:42:46;;;;;;;2.53;1.73;;;5.50;99.90;;;;;;5090769;28;20214;-78
2021/03/13 01:45:14;;;;;;;1.90;1.40;;;5.50;99.90;;;;;;5090671;28;20214;-77
2021/03/13 01:47:40;;;;;;;2.40;1.50;;;5.50;99.90;;;;;;5090839;28;20214;-77
2021/03/13 01:50:10;;;;;;;1.50;1.40;;;5.50;99.90;;;;;;5090686;28;20203;-74
2021/03/13 01:52:36;;;;;;;1.30;1.30;;;5.50;99.90;;;;;;5090554;28;20202;-75
2021/03/13 01:55:04;;;;;;;1.53;1.37;;;5.50;99.90;;;;;;5090587;28;20234;-75
2021/03/13 01:57:31;;;;;;;1.40;1.30;;;5.50;99.90;;;;;;5090543;28;20209;-75
2021/03/13 01:59:58;;;;;;;3.27;1.37;;;5.50;99.90;;;;;;5089904;28;20254;-75
2021/03/13 02:02:24;;;;;;;1.73;1.50;;;5.50;99.90;;;;;;5089967;28;20265;-74
2021/03/13 02:04:51;;;;;;;2.07;1.30;;;5.50;99.90;;;;;;5090489;28;20203;-75
2021/03/13 02:07:22;;;;;;;2.13;1.33;;;5.50;99.90;;;;;;5090263;28;20214;-76
2021/03/13 02:10:00;;;;;;;1.47;1.10;;;5.50;99.90;;;;;;5090225;28;20205;-75
2021/03/13 02:12:35;;;;;;;1.53;1.40;;;5.40;99.90;;;;;;5090172;28;20198;-76
2021/03/13 02:15:08;;;;;;;1.40;1.30;;;5.50;99.90;;;;;;5090057;28;20248;-75
2021/03/13 02:17:41;;;;;;;2.67;1.60;;;5.40;99.90;;;;;;5090288;28;20191;-76
2021/03/13 02:20:20;;;;;;;1.80;1.70;;;5.40;99.90;;;;;;5090084;28;20223;-76
2021/03/13 02:22:50;;;;;;;3.43;1.50;;;5.50;99.90;;;;;;5090190;28;20224;-74
2021/03/13 02:25:30;;;;;;;2.07;1.63;;;5.40;99.90;;;;;;5089713;28;20296;-76
2021/03/13 02:28:03;;;;;;;2.23;1.73;;;5.50;99.90;;;;;;5089680;28;20230;-80
2021/03/13 02:30:31;;;;;;;2.67;1.90;;;5.40;99.90;;;;;;5089613;28;20641;-76
2021/03/13 02:33:03;;;;;;;2.87;1.70;;;5.40;99.90;;;;;;5089587;28;20203;-76
2021/03/13 02:35:35;;;;;;;3.33;2.07;;;5.40;99.90;;;;;;5089839;28;20226;-76
2021/03/13 02:38:04;;;;;;;2.43;2.23;;;5.30;99.90;;;;;;5089720;28;20221;-76
2021/03/13 02:40:32;;;;;;;2.97;2.17;;;5.30;99.90;;;;;;5089828;28;20202;-76
2021/03/13 02:43:01;;;;;;;3.87;2.13;;;5.30;99.90;;;;;;5089295;28;20548;-75
2021/03/13 02:45:31;;;;;;;2.93;2.33;;;5.40;99.90;;;;;;5088948;28;20673;-76
2021/03/13 02:47:59;;;;;;;3.17;2.00;;;5.40;99.90;;;;;;5089404;28;20269;-77
2021/03/13 02:50:26;;;;;;;3.13;1.97;;;5.40;99.90;;;;;;5089542;28;20199;-76
2021/03/13 02:52:54;;;;;;;4.23;2.47;;;5.40;99.90;;;;;;5089560;28;20202;-77
2021/03/13 02:55:22;;;;;;;3.13;2.03;;;5.50;99.90;;;;;;5089381;28;20230;-77
2021/03/13 02:57:52;;;;;;;3.97;2.90;;;5.50;99.90;;;;;;5089391;28;20210;-77
2021/03/13 03:00:20;;;;;;;5.73;2.63;;;5.50;99.90;;;;;;5089454;28;20195;-77
2021/03/13 03:02:52;;;;;;;4.47;2.47;;;5.50;99.90;;;;;;5089147;28;20242;-77
2021/03/13 03:05:19;;;;;;;2.10;1.90;;;5.50;99.90;;;;;;5089264;28;20187;-77
2021/03/13 03:07:48;;;;;;;2.53;2.00;;;5.50;99.90;;;;;;5089096;28;20207;-77
2021/03/13 03:10:16;;;;;;;2.43;1.70;;;5.50;99.90;;;;;;5089142;28;20246;-77
2021/03/13 03:12:43;;;;;;;3.03;1.70;;;5.40;99.90;;;;;;5089194;28;20252;-76
2021/03/13 03:15:10;;;;;;;3.40;1.80;;;5.40;99.90;;;;;;5088886;28;20310;-77
2021/03/13 03:17:39;;;;;;;2.77;2.00;;;5.40;99.90;;;;;;5089169;28;20214;-77
2021/03/13 03:20:09;;;;;;;2.47;1.73;;;5.40;99.90;;;;;;5088916;28;20206;-77
2021/03/13 03:22:37;;;;;;;3.40;1.70;;;5.40;99.90;;;;;;5088927;28;20222;-77
2021/03/13 03:25:04;;;;;;;1.50;1.40;;;5.50;99.90;;;;;;5088622;28;20209;-77
2021/03/13 03:27:30;;;;;;;2.03;1.43;;;5.50;99.90;;;;;;5088801;28;20203;-76
2021/03/13 03:29:57;;;;;;;1.53;1.43;;;5.50;99.90;;;;;;5088965;28;20219;-76
2021/03/13 03:32:23;;;;;;;1.50;1.40;;;5.40;99.90;;;;;;5088934;28;20244;-76
2021/03/13 03:34:49;;;;;;;2.40;1.60;;;5.50;99.90;;;;;;5088346;28;20715;-76
2021/03/13 03:37:16;;;;;;;1.70;1.60;;;5.40;99.90;;;;;;5088463;28;20198;-76
2021/03/13 03:39:42;;;;;;;1.60;1.20;;;5.40;99.90;;;;;;5088731;28;20245;-76
2021/03/13 03:42:10;;;;;;;1.83;0.97;;;5.50;99.90;;;;;;5088614;28;20218;-76
2021/03/13 03:44:41;;;;;;;2.57;2.20;;;5.40;99.90;;;;;;5088521;28;20720;-76
2021/03/13 03:47:10;;;;;;;1.67;1.37;;;5.50;99.90;;;;;;5088592;28;20198;-76
2021/03/13 03:49:39;;;;;;;1.27;1.17;;;5.50;99.90;;;;;;5088783;28;20631;-76
2021/03/13 03:52:06;;;;;;;2.53;1.80;;;5.60;99.90;;;;;;5088249;28;20228;-76
2021/03/13 03:54:37;;;;;;;2.20;1.10;;;5.60;99.90;;;;;;5088529;28;20227;-76
2021/03/13 03:57:07;;;;;;;2.83;1.30;;;5.60;99.90;;;;;;5088444;28;20202;-76
2021/03/13 03:59:33;;;;;;;1.77;1.67;;;5.60;99.90;;;;;;5091968;28;20267;-76
2021/03/13 04:02:01;;;;;;;2.23;1.70;;;5.60;99.90;;;;;;5092478;28;20238;-76
2021/03/13 04:04:29;;;;;;;4.07;3.50;;;5.50;99.90;;;;;;5092843;28;20226;-75
2021/03/13 04:06:58;;;;;;;2.10;1.23;;;5.50;99.90;;;;;;5092479;28;20207;-74
2021/03/13 04:09:26;;;;;;;3.23;1.20;;;5.50;99.90;;;;;;5092694;28;20257;-75
2021/03/13 04:11:55;;;;;;;5.13;2.90;;;5.50;99.90;;;;;;5092636;28;20613;-75
2021/03/13 04:14:22;;;;;;;1.73;1.63;;;5.50;99.90;;;;;;5092122;28;20230;-75
2021/03/13 04:16:49;;;;;;;1.53;1.43;;;5.50;99.90;;;;;;5092355;28;20213;-75
2021/03/13 04:19:16;;;;;;;2.13;1.20;;;5.50;99.90;;;;;;5092036;28;20225;-76
2021/03/13 04:21:43;;;;;;;1.30;1.20;;;5.40;99.90;;;;;;5092390;28;20203;-75
2021/03/13 04:24:12;;;;;;;1.60;1.20;;;5.40;99.90;;;;;;5091975;28;20616;-75
2021/03/13 04:26:39;;;;;;;1.00;1.00;;;5.50;99.90;;;;;;5092331;28;20203;-75
2021/03/13 04:29:06;;;;;;;1.90;1.30;;;5.60;99.90;;;;;;5092187;28;20210;-76
2021/03/13 04:31:33;;;;;;;1.40;1.10;;;5.50;99.90;;;;;;5092341;28;20579;-75
2021/03/13 04:34:01;;;;;;;1.67;1.30;;;5.50;99.90;;;;;;5091727;28;20223;-75
2021/03/13 04:36:28;;;;;;;2.37;1.20;;;5.50;99.90;;;;;;5091996;28;20246;-78
2021/03/13 04:38:57;;;;;;;2.73;1.13;;;5.50;99.90;;;;;;5092008;28;20412;-75
2021/03/13 04:41:25;;;;;;;1.83;0.90;;;5.60;99.90;;;;;;5091574;28;20619;-76
2021/03/13 04:43:52;;;;;;;2.87;1.40;;;5.50;99.90;;;;;;5091729;28;20256;-76
2021/03/13 04:46:20;;;;;;;2.53;1.10;;;5.50;99.90;;;;;;5091670;28;20604;-76
2021/03/13 04:48:47;;;;;;;2.70;1.30;;;5.50;99.90;;;;;;5091869;28;20214;-74
2021/03/13 04:51:17;;;;;;;2.47;1.30;;;5.50;99.90;;;;;;5091594;28;20234;-75
2021/03/13 04:53:44;;;;;;;1.63;1.00;;;5.50;99.90;;;;;;5091547;28;20650;-75
2021/03/13 04:56:11;;;;;;;1.53;1.10;;;;;;;;;;5091634;28;20233;-78
2021/03/13 04:58:37;;;;;;;1.70;1.20;;;5.50;99.90;;;;;;5091525;28;20295;-78
2021/03/13 05:01:03;;;;;;;2.17;1.17;;;5.50;99.90;;;;;;5091300;28;20260;-76
2021/03/13 05:03:30;;;;;;;1.87;1.10;;;5.60;99.90;;;;;;5091140;28;20262;-76
2021/03/13 05:05:56;;;;;;;0.93;0.90;;;5.60;99.90;;;;;;5091470;28;20222;-76
2021/03/13 05:08:23;;;;;;;1.20;1.07;;;5.50;99.90;;;;;;5091177;28;20230;-76
2021/03/13 05:10:49;;;;;;;0.80;0.80;;;5.50;99.90;;;;;;5091079;28;20567;-76
2021/03/13 05:13:15;;;;;;;1.30;1.20;;;5.60;99.90;;;;;;5091108;28;20214;-76
2021/03/13 05:15:41;;;;;;;1.20;1.00;;;5.60;99.90;;;;;;5091429;28;20273;-77
2021/03/13 05:18:07;;;;;;;0.90;0.90;;;5.60;99.90;;;;;;5090861;28;20211;-75
2021/03/13 05:20:34;;;;;;;1.67;1.00;;;5.60;99.90;;;;;;5091300;28;20242;-75
2021/03/13 05:23:00;;;;;;;1.00;1.00;;;5.50;99.90;;;;;;5091401;28;20202;-76
2021/03/13 05:25:26;;;;;;;1.13;1.03;;;5.50;99.90;;;;;;5091237;28;20203;-76
2021/03/13 05:27:52;;;;;;;0.83;0.83;;;5.50;99.90;;;;;;5090987;28;20237;-75
2021/03/13 05:30:20;;;;;;;1.63;1.00;;;5.50;99.90;;;;;;5091111;28;20209;-76
2021/03/13 05:32:46;;;;;;;1.97;1.10;;;5.50;99.90;;;;;;5090951;28;20207;-76
2021/03/13 05:35:13;;;;;;;0.80;0.80;;;5.50;99.90;;;;;;5091037;28;20338;-75
2021/03/13 05:37:40;;;;;;;1.70;1.27;;;5.60;99.90;;;;;;5091051;28;20211;-76
2021/03/13 05:40:09;;;;;;;0.97;0.90;;;5.60;99.90;;;;;;5091009;28;20207;-76
2021/03/13 05:42:36;;;;;;;0.80;0.80;;;5.60;99.90;;;;;;5090814;28;20827;-76
2021/03/13 05:45:05;;;;;;;1.60;1.23;;;5.60;99.90;;;;;;5090467;28;20543;-78
2021/03/13 05:47:32;;;;;;;2.13;1.00;;;5.70;99.90;;;;;;5091093;28;20199;-77
2021/03/13 05:50:02;;;;;;;1.17;1.10;;;5.70;99.90;;;;;;5095893;28;20206;-77
2021/03/13 05:52:31;;;;;;;1.30;0.90;;;5.80;99.90;;;;;;5111205;28;20350;-76
2021/03/13 05:54:59;;;;;;;1.00;1.00;;;5.80;99.90;;;;;;5111102;28;20233;-75
2021/03/13 05:57:25;;;;;;;1.40;1.30;;;5.70;99.90;;;;;;5110698;28;20208;-75
2021/03/13 05:59:52;;;;;;;2.37;1.20;;;5.70;99.90;;;;;;5110837;28;20209;-75
2021/03/13 06:02:20;;;;;;;1.10;1.10;;;5.80;99.90;;;;;;5110458;28;20275;-76
2021/03/13 06:04:46;;;;;;;1.47;1.10;;;5.80;99.90;;;;;;5110833;28;20217;-74
2021/03/13 06:07:14;;;;;;;1.50;1.40;;;5.90;99.90;;;;;;5110385;28;20961;-75
2021/03/13 06:09:41;;;;;;;1.23;1.13;;;5.90;99.90;;;;;;5110522;28;20618;-76
2021/03/13 06:12:09;;;;;;;1.17;1.10;;;5.90;99.90;;;;;;5110579;28;20217;-75
2021/03/13 06:14:35;;;;;;;1.43;1.37;;;6.00;99.90;;;;;;5110688;28;20238;-75
2021/03/13 06:17:02;;;;;;;1.77;1.30;;;6.00;99.90;;;;;;5110561;28;20259;-75
2021/03/13 06:19:47;;;;;;;1.50;1.27;;;6.10;99.90;;;;;;5109713;28;20202;-75
2021/03/13 06:22:33;;;;;;;1.40;1.30;;;6.10;99.90;;;;;;5097369;28;20217;-76
2021/03/13 06:25:24;;;;;;;1.27;1.17;;;6.20;99.90;;;;;;5105080;28;20637;-76
2021/03/13 06:28:20;;;;;;;1.20;1.10;;;6.10;99.90;;;;;;5087313;28;20251;-77
2021/03/13 06:30:48;;;;;;;1.30;1.10;;;6.20;99.90;;;;;;5101480;28;20206;-76
2021/03/13 06:33:25;;;;;;;1.70;1.60;;;6.20;99.90;;;;;;5109902;27;20257;-77
2021/03/13 06:35:53;;;;;;;1.20;1.10;;;6.20;99.90;;;;;;5090425;28;20863;-76
2021/03/13 06:38:21;;;;;;;2.23;1.57;;;6.10;99.90;;;;;;5085607;28;20207;-76
2021/03/13 06:40:48;;;;;;;1.33;1.23;;;6.20;99.90;;;;;;5086051;28;20207;-76
2021/03/13 06:43:23;;;;;;;2.03;1.60;;;6.20;99.90;;;;;;5085531;28;20214;-76
2021/03/13 06:46:01;;;;;;;1.67;1.40;;;6.30;99.90;;;;;;5085631;28;20593;-76
2021/03/13 06:48:39;;;;;;;21.13;2.07;;;6.30;99.90;;;;;;5085739;28;20191;-74
2021/03/13 06:51:30;;;;;;;1.50;1.40;;;6.40;99.90;;;;;;5085158;28;20635;-74
2021/03/13 06:54:08;;;;;;;1.83;1.23;;;6.40;99.90;;;;;;5085550;28;20195;-75
2021/03/13 06:56:37;;;;;;;1.70;1.40;;;6.40;99.90;;;;;;5085473;28;20665;-76
2021/03/13 06:59:17;;;;;;;1.77;1.30;;;6.40;99.90;;;;;;5085361;28;20713;-75
2021/03/13 07:01:44;;;;;;;1.40;1.20;;;6.40;99.90;;;;;;5099121;28;20201;-75
2021/03/13 07:04:11;;;;;;;1.43;1.13;;;6.40;99.90;;;;;;5105210;28;20728;-76
2021/03/13 07:06:44;;;;;;;1.60;1.50;;;6.40;99.90;;;;;;5106045;28;20209;-75
2021/03/13 07:09:10;;;;;;;2.07;1.43;;;6.40;99.90;;;;;;5096519;28;20202;-77
2021/03/13 07:11:37;;;;;;;1.90;1.30;;;6.40;99.90;;;;;;5093960;28;20420;-75
2021/03/13 07:14:04;;;;;;;1.70;1.60;;;6.40;99.90;;;;;;5095696;28;20216;-76
2021/03/13 07:16:33;;;;;;;1.90;1.80;;;6.40;99.90;;;;;;5094242;28;20228;-77
2021/03/13 07:19:02;;;;;;;2.30;1.80;;;6.40;99.90;;;;;;5086111;28;20205;-77
2021/03/13 07:21:30;;;;;;;3.70;1.93;;;6.40;99.90;;;;;;5084835;28;20233;-76
2021/03/13 07:24:02;;;;;;;1.80;1.70;;;6.50;99.90;;;;;;5085327;28;20645;-75
2021/03/13 07:26:32;;;;;;;1.37;1.27;;;6.40;99.90;;;;;;5102766;28;20213;-74
2021/03/13 07:29:01;;;;;;;2.03;1.83;;;6.40;99.90;;;;;;5105297;28;20206;-77
2021/03/13 07:31:31;;;;;;;1.60;1.50;;;6.40;99.90;;;;;;5105137;28;20225;-76
2021/03/13 07:34:01;;;;;;;3.07;1.67;;;6.40;99.90;;;;;;5101592;28;20779;-76
2021/03/13 07:36:28;;;;;;;2.00;1.70;;;6.40;99.90;;;;;;5104903;28;20744;-75
2021/03/13 07:38:59;;;;;;;2.07;1.97;;;6.50;99.90;;;;;;5105033;28;20778;-75
2021/03/13 07:41:25;;;;;;;2.10;1.90;;;6.40;99.90;;;;;;5105645;28;20198;-75
2021/03/13 07:43:53;;;;;;;3.03;1.90;;;6.40;99.90;;;;;;5093159;28;20209;-77
2021/03/13 07:46:22;;;;;;;2.20;2.00;;;6.40;99.90;;;;;;5084750;28;20214;-77
2021/03/13 07:48:49;;;;;;;1.97;1.87;;;6.50;99.90;;;;;;5084910;28;20656;-76
2021/03/13 07:51:17;;;;;;;2.17;1.97;;;6.50;99.90;;;;;;5096085;28;20239;-77
2021/03/13 07:53:43;;;;;;;3.73;2.20;;;6.50;99.90;;;;;;5107716;28;20213;-77
2021/03/13 07:56:12;;;;;;;2.13;1.97;;;6.40;99.90;;;;;;5108371;28;20230;-76
2021/03/13 07:58:40;;;;;;;2.07;1.97;;;6.40;99.90;;;;;;5106128;28;20213;-75
2021/03/13 08:01:06;;;;;;;1.90;1.80;;;6.40;99.90;;;;;;5107538;28;20744;-76
2021/03/13 08:03:48;;;;;;;2.00;1.90;;;6.40;99.90;;;;;;5108265;28;20238;-76
2021/03/13 08:06:17;;;;;;;2.00;1.90;;;6.50;99.90;;;;;;5104085;28;20599;-76
2021/03/13 08:08:45;;;;;;;1.90;1.80;;;6.50;99.90;;;;;;5108123;28;20267;-75
2021/03/13 08:11:12;;;;;;;2.97;2.10;;;6.50;99.90;;;;;;5108868;28;20202;-76
2021/03/13 08:13:55;;;;;;;2.07;1.87;;;6.50;99.90;;;;;;5108548;28;20206;-76
2021/03/13 08:16:38;;;;;;;2.03;1.93;;;6.50;99.90;;;;;;5107929;28;20683;-77
2021/03/13 08:19:25;;;;;;;2.50;1.93;;;6.40;99.90;;;;;;5107754;28;20648;-77
2021/03/13 08:22:10;;;;;;;2.13;2.00;;;6.40;99.90;;;;;;5108427;28;20197;-76
2021/03/13 08:24:42;;;;;;;3.87;2.00;;;6.40;99.90;;;;;;5108610;28;20247;-76
2021/03/13 08:27:17;;;;;;;2.27;2.07;;;6.40;99.90;;;;;;5108454;28;20202;-76
2021/03/13 08:29:54;;;;;;;1.90;1.80;;;6.40;99.90;;;;;;5107938;28;20327;-75
2021/03/13 08:32:55;;;;;;;2.40;2.20;;;6.40;99.90;;;;;;5108248;28;20194;-76
2021/03/13 08:35:45;;;;;;;2.50;2.30;;;6.40;99.90;;;;;;5106084;28;20294;-76
2021/03/13 08:38:13;;;;;;;2.47;2.20;;;6.40;99.90;;;;;;5105428;28;20202;-76
2021/03/13 08:40:45;;;;;;;4.07;2.30;;;6.40;99.90;;;;;;5108193;28;20213;-77
2021/03/13 08:43:37;;;;;;;2.40;2.20;;;6.40;99.90;;;;;;5108416;28;20213;-76
2021/03/13 08:46:05;;;;;;;2.10;1.90;;;6.40;99.90;;;;;;5104076;28;20206;-76
2021/03/13 08:48:55;;;;;;;2.17;1.97;;;6.40;99.90;;;;;;5091516;28;20210;-75
2021/03/13 08:51:21;;;;;;;11.37;3.13;;;6.40;99.90;;;;;;5091471;28;20669;-76
2021/03/13 08:53:48;;;;;;;4.03;2.87;;;6.40;99.90;;;;;;5091182;28;20233;-76
2021/03/13 08:56:37;;;;;;;2.30;2.10;;;6.40;99.90;;;;;;5091433;28;20644;-76
2021/03/13 08:59:16;;;;;;;2.30;2.10;;;6.40;99.90;;;;;;5091197;28;20206;-76
2021/03/13 09:01:44;;;;;;;2.07;1.97;;;6.40;99.90;;;;;;5091700;28;20660;-76
2021/03/13 09:04:11;;;;;;;2.27;2.07;;;6.40;99.90;;;;;;5090993;28;20332;-76
2021/03/13 09:06:40;;;;;;;2.00;1.90;;;6.40;99.90;;;;;;5091446;28;20206;-76
2021/03/13 09:09:13;;;;;;;3.17;2.23;;;6.40;99.90;;;;;;5090826;28;20577;-76
2021/03/13 09:11:41;;;;;;;3.00;2.60;;;6.40;99.90;;;;;;5091063;28;20206;-76
2021/03/13 09:14:07;;;;;;;2.97;2.57;;;6.40;99.90;;;;;;5091037;28;20210;-77
2021/03/13 09:16:35;;;;;;;3.90;2.43;;;6.40;99.90;;;;;;5090939;28;20497;-77
2021/03/13 09:19:01;;;;;;;2.87;2.67;;;6.40;99.90;;;;;;5090897;28;20669;-76
2021/03/13 09:21:42;;;;;;;2.80;2.60;;;6.40;99.90;;;;;;5090291;28;20726;-77
2021/03/13 09:24:11;;;;;;;2.97;2.60;;;6.30;99.90;;;;;;5090815;28;20652;-76
2021/03/13 09:26:37;;;;;;;3.60;2.73;;;6.30;99.90;;;;;;5090982;28;20682;-76
2021/03/13 09:29:04;;;;;;;2.90;2.70;;;6.30;99.90;;;;;;5091063;28;20213;-77
2021/03/13 09:31:30;;;;;;;3.37;2.60;;;6.30;99.90;;;;;;5090718;28;20211;-76
2021/03/13 09:34:12;;;;;;;2.70;2.50;;;6.30;99.90;;;;;;5091077;28;20231;-76
2021/03/13 09:36:38;;;;;;;3.30;3.00;;;6.40;99.90;;;;;;5090776;28;20246;-76
2021/03/13 09:39:05;;;;;;;2.97;2.77;;;6.30;99.90;;;;;;5090527;28;20206;-75
2021/03/13 09:41:32;;;;;;;2.67;2.47;;;6.40;99.90;;;;;;5090479;28;20206;-76
2021/03/13 09:43:58;;;;;;;2.47;2.27;;;6.40;99.90;;;;;;5090669;28;20207;-76
2021/03/13 09:46:25;;;;;;;2.60;2.40;;;6.40;99.90;;;;;;5090367;28;20207;-76
2021/03/13 09:48:51;;;;;;;2.27;2.17;;;6.50;99.90;;;;;;5090452;28;20211;-76
2021/03/13 09:51:17;;;;;;;2.70;2.23;;;6.50;99.90;;;;;;5089960;28;20215;-76
2021/03/13 09:53:44;;;;;;;2.30;2.20;;;6.50;99.90;;;;;;5090439;28;20199;-76
2021/03/13 09:56:10;;;;;;;2.00;1.90;;;6.60;99.90;;;;;;5089171;28;20233;-76
2021/03/13 09:58:37;;;;;;;2.10;2.00;;;6.60;99.90;;;;;;5089800;28;20664;-76
2021/03/13 10:01:04;;;;;;;1.87;1.77;;;6.60;99.90;;;;;;5089841;28;20665;-75
2021/03/13 10:03:30;;;;;;;1.90;1.77;;;6.60;99.90;;;;;;5089607;28;20716;-77
2021/03/13 10:05:58;;;;;;;2.03;1.80;;;6.70;99.90;;;;;;5090097;28;20199;-75
2021/03/13 10:08:33;;;;;;;1.67;1.67;;;6.70;99.90;;;;;;5089906;28;20214;-76
2021/03/13 10:11:02;;;;;;;1.67;1.57;;;6.70;99.90;;;;;;5089980;28;20256;-77
2021/03/13 10:13:29;;;;;;;1.50;1.50;;;6.70;99.90;;;;;;5089491;28;20206;-76
2021/03/13 10:15:57;;;;;;;1.77;1.67;;;6.80;99.90;;;;;;5089931;28;20230;-76
2021/03/13 10:18:26;;;;;;;1.50;1.40;;;6.90;99.90;;;;;;5105543;28;20688;-76
2021/03/13 10:20:54;;;;;;;1.60;1.50;;;6.90;99.90;;;;;;5107052;28;20199;-77
2021/03/13 10:23:23;;;;;;;1.40;1.30;;;6.90;99.90;;;;;;5099353;28;20199;-77
2021/03/13 10:25:55;;;;;;;1.30;1.20;;;7.00;99.90;;;;;;5100759;28;20218;-77
2021/03/13 10:28:25;;;;;;;1.23;1.23;;;7.00;99.90;;;;;;5100267;28;20246;-77
2021/03/13 10:30:51;;;;;;;1.10;1.10;;;7.00;99.90;;;;;;5101860;28;20194;-77
2021/03/13 10:33:29;;;;;;;1.00;1.00;;;7.10;99.90;;;;;;5109398;28;20248;-76
2021/03/13 10:35:55;;;;;;;1.30;1.30;;;7.10;99.90;;;;;;5106227;28;20623;-76
2021/03/13 10:38:21;;;;;;;1.23;0.90;;;7.20;99.90;;;;;;5091700;28;20719;-76
2021/03/13 10:40:50;;;;;;;0.97;0.97;;;7.20;99.90;;;;;;5106023;28;20236;-76
2021/03/13 10:43:32;;;;;;;0.80;0.80;;;7.20;99.90;;;;;;5084815;28;20355;-75
2021/03/13 10:46:17;;;;;;;0.90;0.90;;;7.20;99.90;;;;;;5085715;28;20199;-75
2021/03/13 10:49:05;;;;;;;1.00;1.00;;;7.20;99.90;;;;;;5085789;28;20287;-76
2021/03/13 10:51:33;;;;;;;0.90;0.90;;;7.30;99.90;;;;;;5085885;28;20198;-76
2021/03/13 10:54:00;;;;;;;0.80;0.80;;;7.30;99.90;;;;;;5094117;28;20202;-76
2021/03/13 10:56:44;;;;;;;1.20;0.70;;;7.20;99.90;;;;;;5105280;28;20747;-76
2021/03/13 10:59:10;;;;;;;0.73;0.73;;;7.30;99.90;;;;;;5105597;28;20202;-76
2021/03/13 11:01:37;;;;;;;0.70;0.70;;;7.30;99.90;;;;;;5104040;28;20202;-79
2021/03/13 11:04:05;;;;;;;0.60;0.60;;;7.30;99.90;;;;;;5105138;28;20246;-76
2021/03/13 11:06:32;;;;;;;0.53;0.53;;;7.30;99.90;;;;;;5105297;28;20255;-76
2021/03/13 11:09:02;;;;;;;0.63;0.60;;;7.30;99.90;;;;;;5105693;28;20206;-76
2021/03/13 11:11:29;;;;;;;0.90;0.90;;;7.40;99.90;;;;;;5105079;28;20228;-76
2021/03/13 11:13:55;;;;;;;0.70;0.70;;;7.40;99.90;;;;;;5105839;28;20352;-77
2021/03/13 11:16:22;;;;;;;0.50;0.50;;;7.40;99.90;;;;;;5105584;27;20277;-77
2021/03/13 11:18:49;;;;;;;0.93;0.47;;;7.40;99.90;;;;;;5105650;28;20198;-77
2021/03/13 11:21:17;;;;;;;0.90;0.70;;;7.50;99.90;;;;;;5105233;28;20206;-77
2021/03/13 11:23:43;;;;;;;0.60;0.60;;;7.50;99.90;;;;;;5105580;28;20209;-78
2021/03/13 11:26:11;;;;;;;0.60;0.60;;;7.50;99.90;;;;;;5105383;28;20213;-77
2021/03/13 11:28:37;;;;;;;0.93;0.50;;;7.60;99.90;;;;;;5099013;28;20225;-77
2021/03/13 11:31:04;;;;;;;0.67;0.67;;;7.60;99.90;;;;;;5095168;28;20210;-76
2021/03/13 11:33:30;;;;;;;0.83;0.83;;;7.60;99.90;;;;;;5086819;28;20280;-77
2021/03/13 11:35:56;;;;;;;2.73;1.30;;;7.70;99.90;;;;;;5084597;28;20238;-77
2021/03/13 11:38:23;;;;;;;0.60;0.60;;;7.90;99.90;;;;;;5094915;28;20255;-77
2021/03/13 11:40:49;;;;;;;0.60;0.60;;;8.00;99.90;;;;;;5105162;28;20245;-76
2021/03/13 11:43:15;;;;;;;0.40;0.40;;;8.10;99.90;;;;;;5104752;28;20206;-76
2021/03/13 11:45:42;;;;;;;0.37;0.37;;;8.20;99.90;;;;;;5104998;28;20284;-76
2021/03/13 11:48:09;;;;;;;0.50;0.50;;;8.20;99.90;;;;;;5098849;28;20251;-76
2021/03/13 11:50:35;;;;;;;0.50;0.50;;;8.30;99.90;;;;;;5098008;28;20202;-77
2021/03/13 11:53:01;;;;;;;0.70;0.70;;;8.30;99.90;;;;;;5084562;28;20661;-76
2021/03/13 11:55:28;;;;;;;0.50;0.50;;;8.30;99.90;;;;;;5084825;28;20264;-76
2021/03/13 11:57:54;;;;;;;0.60;0.60;;;8.50;99.90;;;;;;5085054;28;20238;-77
2021/03/13 12:00:21;;;;;;;0.50;0.50;;;8.50;99.90;;;;;;5089735;28;20227;-76
2021/03/13 12:02:48;;;;;;;0.83;0.83;;;8.60;99.90;;;;;;5084276;28;20238;-76
2021/03/13 12:05:14;;;;;;;0.47;0.47;;;8.80;99.90;;;;;;5090394;28;20194;-76
2021/03/13 12:07:41;;;;;;;1.10;0.70;;;9.00;99.90;;;;;;5086906;28;20620;-76
2021/03/13 12:10:09;;;;;;;0.53;0.53;;;9.10;99.90;;;;;;5099916;28;20233;-76
2021/03/13 12:12:37;;;;;;;0.53;0.53;;;9.10;99.90;;;;;;5103221;28;20272;-76
2021/03/13 12:15:04;;;;;;;0.50;0.50;;;9.10;99.90;;;;;;5090645;28;20246;-77
2021/03/13 12:17:30;;;;;;;3.27;0.60;;;9.30;99.90;;;;;;5093040;28;20205;-79
2021/03/13 12:19:56;;;;;;;0.40;0.40;;;9.40;99.90;;;;;;5110768;28;20217;-77
2021/03/13 12:22:23;;;;;;;1.10;0.90;;;9.60;99.90;;;;;;5112286;28;20217;-77
2021/03/13 12:24:50;;;;;;;0.83;0.40;;;9.80;99.90;;;;;;5112109;28;20721;-77
2021/03/13 12:27:16;;;;;;;0.67;0.57;;;9.90;99.90;;;;;;5112249;28;20224;-77
2021/03/13 12:29:43;;;;;;;0.60;0.30;;;9.90;99.90;;;;;;5112145;28;20206;-78
2021/03/13 12:32:09;;;;;;;2.27;0.57;;;9.90;99.90;;;;;;5112330;27;20202;-77
2021/03/13 12:34:35;;;;;;;0.40;0.40;;;9.80;99.90;;;;;;5111969;28;20580;-77
2021/03/13 12:37:01;;;;;;;0.30;0.30;;;9.80;99.90;;;;;;5108682;28;20238;-77
2021/03/13 12:39:28;;;;;;;0.30;0.30;;;9.90;99.90;;;;;;5104698;28;20202;-77
2021/03/13 12:41:55;;;;;;;1.13;0.40;;;10.00;99.90;;;;;;5108384;28;20199;-76
2021/03/13 12:44:21;;;;;;;0.50;0.50;;;10.10;99.90;;;;;;5110647;28;20198;-77
2021/03/13 12:46:49;;;;;;;1.27;1.17;;;10.10;99.90;;;;;;5111833;28;20214;-76
2021/03/13 12:49:15;;;;;;;0.63;0.40;;;10.20;99.90;;;;;;5111942;28;20296;-76
2021/03/13 12:51:41;;;;;;;3.33;0.40;;;10.30;99.90;;;;;;5111942;28;20206;-76
2021/03/13 12:54:07;;;;;;;0.50;0.50;;;10.30;99.90;;;;;;5111812;28;20206;-76
2021/03/13 12:56:33;;;;;;;0.50;0.40;;;10.30;99.90;;;;;;5111722;27;20229;-76
2021/03/13 12:58:59;;;;;;;0.73;0.73;;;10.30;99.90;;;;;;5111595;28;20206;-77
2021/03/13 13:01:27;;;;;;;0.20;0.20;;;10.40;99.90;;;;;;5111999;27;20274;-77
2021/03/13 13:03:55;;;;;;;0.33;0.33;;;10.40;99.90;;;;;;5111173;28;20226;-79
2021/03/13 13:06:21;;;;;;;0.20;0.20;;;10.30;99.90;;;;;;5111745;28;20270;-76